Pacific Hope — 3FLH6 — position and weather

sailwx.info

Track history (hours):
 
Tides and Currents Weather Stations Pressure Air Temp Water Temp Dewpoint Dewpoint Depression Visibility Wind Speed Wind Dir Waves Ship Positions

Pacific Hope

Last reported at 2015-Jun-24 20:30 UTC. Time now 2015-Jul-02 18:17 UTC.
Position S 26°42' E 153°13'.

Length 169 m; draft 5.3 m.

Type: Ship. MMSI: 351849000.

Date/timePositionNaut miles runAvg speedWind from/ knotsBaromVisibWave heightAir tempDewpointWater temp
2015-Jun-24 20:30S 26°42' E 153°13'21 9.6
2015-Jun-24 18:17S 27°03' E 153°16'911.6
2015-Jun-24 17:30S 27°11' E 153°21'21 1.5
2015-Jun-24 03:23S 27°27' E 153°04'0 0.0
2015-Jun-24 02:32S 27°27' E 153°04'0 0.0
2015-Jun-24 01:32S 27°27' E 153°04'0 0.0
2015-Jun-24 00:32S 27°27' E 153°04'0 0.0
2015-Jun-23 23:23S 27°27' E 153°04'0 0.0
2015-Jun-23 22:05S 27°27' E 153°04'0 0.0
2015-Jun-23 21:17S 27°27' E 153°04'0 0.0
2015-Jun-23 20:29S 27°27' E 153°04'0 0.0
2015-Jun-23 19:32S 27°27' E 153°04'0 0.0
2015-Jun-23 19:05S 27°27' E 153°04'0 0.0
2015-Jun-22 19:32S 27°27' E 153°04'0 0.0
2015-Jun-22 18:32S 27°27' E 153°04'0 0.0
2015-Jun-22 17:32S 27°27' E 153°04'0 0.0
2015-Jun-22 16:26S 27°27' E 153°04'0 0.0
2015-Jun-22 15:32S 27°27' E 153°04'0 0.0
2015-Jun-22 14:32S 27°27' E 153°04'0 0.0
2015-Jun-22 13:26S 27°27' E 153°04'0 0.0
2015-Jun-22 10:32S 27°27' E 153°04'0 0.0
2015-Jun-22 09:32S 27°27' E 153°04'0 0.0
2015-Jun-22 07:26S 27°27' E 153°04'0 0.0
2015-Jun-22 06:26S 27°27' E 153°04'0 0.0
2015-Jun-22 05:32S 27°27' E 153°04'0 0.0
2015-Jun-21 14:29S 27°27' E 153°04'0 0.0
2015-Jun-21 10:14S 27°27' E 153°04'0 0.0
2015-Jun-21 07:26S 27°27' E 153°04'0 0.0
2015-Jun-21 04:29S 27°27' E 153°04'0 0.0
2015-Jun-21 02:20S 27°27' E 153°04'0 0.0
2015-Jun-20 22:32S 27°27' E 153°04'0 0.0
2015-Jun-20 21:32S 27°27' E 153°04'0 0.0
2015-Jun-20 20:26S 27°27' E 153°04'0 0.0
2015-Jun-20 19:32S 27°27' E 153°04'0 0.0
2015-Jun-20 18:32S 27°27' E 153°04'0 0.0
2015-Jun-20 17:32S 27°27' E 153°04'0 0.0
2015-Jun-20 16:29S 27°27' E 153°04'0 0.0
2015-Jun-20 15:32S 27°27' E 153°04'0 0.0
2015-Jun-20 14:32S 27°27' E 153°04'0 0.0
2015-Jun-20 13:32S 27°27' E 153°04'0 0.0
2015-Jun-20 12:32S 27°27' E 153°04'0 0.0
2015-Jun-20 11:32S 27°27' E 153°04'0 0.0
2015-Jun-20 10:29S 27°27' E 153°04'0 0.0
2015-Jun-20 08:32S 27°27' E 153°04'0 0.0
2015-Jun-20 06:14S 27°27' E 153°04'0 0.0
2015-Jun-20 04:26S 27°27' E 153°04'0 0.0
2015-Jun-20 03:32S 27°27' E 153°04'0 0.0
2015-Jun-20 02:20S 27°27' E 153°04'0 0.0
2015-Jun-20 01:32S 27°27' E 153°04'0 0.0
2015-Jun-20 00:32S 27°27' E 153°04'0 0.0
2015-Jun-19 23:32S 27°27' E 153°04'0 0.0
2015-Jun-19 22:32S 27°27' E 153°04'0 0.0
2015-Jun-19 21:32S 27°27' E 153°04'0 0.0
2015-Jun-19 20:32S 27°27' E 153°04'0 0.0
2015-Jun-19 19:32S 27°27' E 153°04'0 0.0
2015-Jun-19 18:32S 27°27' E 153°04'2 2.1
2015-Jun-19 17:34S 27°26' E 153°07'8 7.6
2015-Jun-19 16:34S 27°20' E 153°12'1211.7
2015-Jun-19 15:34S 27°10' E 153°19'10 9.6
2015-Jun-19 14:33S 27°02' E 153°15'1312.9
2015-Jun-19 13:34S 26°50' E 153°09'8 7.9
2015-Jun-19 12:33S 26°43' E 153°14'3 2.7
2015-Jun-19 11:33S 26°45' E 153°16'0 0.0
2015-Jun-19 10:32S 26°45' E 153°16'0 0.0
2015-Jun-19 09:32S 26°45' E 153°16'0 0.0
2015-Jun-19 08:32S 26°45' E 153°16'0 0.0
2015-Jun-19 07:33S 26°45' E 153°16'0 0.0
2015-Jun-19 06:30S 26°45' E 153°16'0 0.0
2015-Jun-19 05:33S 26°45' E 153°16'0 0.1
2015-Jun-19 04:33S 26°45' E 153°16'0 0.1
2015-Jun-19 03:33S 26°45' E 153°16'0 0.0
2015-Jun-19 02:33S 26°45' E 153°16'0 0.1
2015-Jun-19 01:33S 26°45' E 153°16'0 0.0
2015-Jun-19 00:33S 26°45' E 153°16'0 0.0
2015-Jun-18 23:29S 26°45' E 153°16'0 0.0
2015-Jun-18 22:33S 26°45' E 153°16'0 0.0
2015-Jun-18 21:33S 26°45' E 153°16'0 0.0
2015-Jun-18 20:33S 26°45' E 153°16'0 0.0
2015-Jun-18 19:33S 26°45' E 153°16'0 0.0
2015-Jun-18 18:33S 26°45' E 153°16'0 0.0
2015-Jun-18 13:27S 26°45' E 153°15'0 0.1
2015-Jun-18 12:30S 26°45' E 153°15'0 0.1
2015-Jun-18 11:33S 26°46' E 153°15'0 0.1
2015-Jun-18 10:33S 26°45' E 153°15'0 0.1
2015-Jun-18 09:33S 26°45' E 153°15'6 5.9
2015-Jun-18 08:33S 26°40' E 153°17'  
Track history (hours):
 
Tides and Currents Weather Stations Pressure Air Temp Water Temp Dewpoint Dewpoint Depression Visibility Wind Speed Wind Dir Waves Ship Positions

Pacific Hope

Last reported at 2015-Jun-24 20:30 UTC. Time now 2015-Jul-02 18:17 UTC.
Position S 26°42' E 153°13'.

Length 169 m; draft 5.3 m.

Type: Ship. MMSI: 351849000.

Date/timePositionNaut miles runAvg speedWind from/ knotsBaromVisibWave heightAir tempDewpointWater temp
2015-Jun-24 20:30S 26°42' E 153°13'21 9.6
2015-Jun-24 18:17S 27°03' E 153°16'911.6
2015-Jun-24 17:30S 27°11' E 153°21'21 1.5
2015-Jun-24 03:23S 27°27' E 153°04'0 0.0
2015-Jun-24 02:32S 27°27' E 153°04'0 0.0
2015-Jun-24 01:32S 27°27' E 153°04'0 0.0
2015-Jun-24 00:32S 27°27' E 153°04'0 0.0
2015-Jun-23 23:23S 27°27' E 153°04'0 0.0
2015-Jun-23 22:05S 27°27' E 153°04'0 0.0
2015-Jun-23 21:17S 27°27' E 153°04'0 0.0
2015-Jun-23 20:29S 27°27' E 153°04'0 0.0
2015-Jun-23 19:32S 27°27' E 153°04'0 0.0
2015-Jun-23 19:05S 27°27' E 153°04'0 0.0
2015-Jun-22 19:32S 27°27' E 153°04'0 0.0
2015-Jun-22 18:32S 27°27' E 153°04'0 0.0
2015-Jun-22 17:32S 27°27' E 153°04'0 0.0
2015-Jun-22 16:26S 27°27' E 153°04'0 0.0
2015-Jun-22 15:32S 27°27' E 153°04'0 0.0
2015-Jun-22 14:32S 27°27' E 153°04'0 0.0
2015-Jun-22 13:26S 27°27' E 153°04'0 0.0
2015-Jun-22 10:32S 27°27' E 153°04'0 0.0
2015-Jun-22 09:32S 27°27' E 153°04'0 0.0
2015-Jun-22 07:26S 27°27' E 153°04'0 0.0
2015-Jun-22 06:26S 27°27' E 153°04'0 0.0
2015-Jun-22 05:32S 27°27' E 153°04'0 0.0
2015-Jun-21 14:29S 27°27' E 153°04'0 0.0
2015-Jun-21 10:14S 27°27' E 153°04'0 0.0
2015-Jun-21 07:26S 27°27' E 153°04'0 0.0
2015-Jun-21 04:29S 27°27' E 153°04'0 0.0
2015-Jun-21 02:20S 27°27' E 153°04'0 0.0
2015-Jun-20 22:32S 27°27' E 153°04'0 0.0
2015-Jun-20 21:32S 27°27' E 153°04'0 0.0
2015-Jun-20 20:26S 27°27' E 153°04'0 0.0
2015-Jun-20 19:32S 27°27' E 153°04'0 0.0
2015-Jun-20 18:32S 27°27' E 153°04'0 0.0
2015-Jun-20 17:32S 27°27' E 153°04'0 0.0
2015-Jun-20 16:29S 27°27' E 153°04'0 0.0
2015-Jun-20 15:32S 27°27' E 153°04'0 0.0
2015-Jun-20 14:32S 27°27' E 153°04'0 0.0
2015-Jun-20 13:32S 27°27' E 153°04'0 0.0
2015-Jun-20 12:32S 27°27' E 153°04'0 0.0
2015-Jun-20 11:32S 27°27' E 153°04'0 0.0
2015-Jun-20 10:29S 27°27' E 153°04'0 0.0
2015-Jun-20 08:32S 27°27' E 153°04'0 0.0
2015-Jun-20 06:14S 27°27' E 153°04'0 0.0
2015-Jun-20 04:26S 27°27' E 153°04'0 0.0
2015-Jun-20 03:32S 27°27' E 153°04'0 0.0
2015-Jun-20 02:20S 27°27' E 153°04'0 0.0
2015-Jun-20 01:32S 27°27' E 153°04'0 0.0
2015-Jun-20 00:32S 27°27' E 153°04'0 0.0
2015-Jun-19 23:32S 27°27' E 153°04'0 0.0
2015-Jun-19 22:32S 27°27' E 153°04'0 0.0
2015-Jun-19 21:32S 27°27' E 153°04'0 0.0
2015-Jun-19 20:32S 27°27' E 153°04'0 0.0
2015-Jun-19 19:32S 27°27' E 153°04'0 0.0
2015-Jun-19 18:32S 27°27' E 153°04'2 2.1
2015-Jun-19 17:34S 27°26' E 153°07'8 7.6
2015-Jun-19 16:34S 27°20' E 153°12'1211.7
2015-Jun-19 15:34S 27°10' E 153°19'10 9.6
2015-Jun-19 14:33S 27°02' E 153°15'1312.9
2015-Jun-19 13:34S 26°50' E 153°09'8 7.9
2015-Jun-19 12:33S 26°43' E 153°14'3 2.7
2015-Jun-19 11:33S 26°45' E 153°16'0 0.0
2015-Jun-19 10:32S 26°45' E 153°16'0 0.0
2015-Jun-19 09:32S 26°45' E 153°16'0 0.0
2015-Jun-19 08:32S 26°45' E 153°16'0 0.0
2015-Jun-19 07:33S 26°45' E 153°16'0 0.0
2015-Jun-19 06:30S 26°45' E 153°16'0 0.0
2015-Jun-19 05:33S 26°45' E 153°16'0 0.1
2015-Jun-19 04:33S 26°45' E 153°16'0 0.1
2015-Jun-19 03:33S 26°45' E 153°16'0 0.0
2015-Jun-19 02:33S 26°45' E 153°16'0 0.1
2015-Jun-19 01:33S 26°45' E 153°16'0 0.0
2015-Jun-19 00:33S 26°45' E 153°16'0 0.0
2015-Jun-18 23:29S 26°45' E 153°16'0 0.0
2015-Jun-18 22:33S 26°45' E 153°16'0 0.0
2015-Jun-18 21:33S 26°45' E 153°16'0 0.0
2015-Jun-18 20:33S 26°45' E 153°16'0 0.0
2015-Jun-18 19:33S 26°45' E 153°16'0 0.0
2015-Jun-18 18:33S 26°45' E 153°16'0 0.0
2015-Jun-18 13:27S 26°45' E 153°15'0 0.1
2015-Jun-18 12:30S 26°45' E 153°15'0 0.1
2015-Jun-18 11:33S 26°46' E 153°15'0 0.1
2015-Jun-18 10:33S 26°45' E 153°15'0 0.1
2015-Jun-18 09:33S 26°45' E 153°15'6 5.9
2015-Jun-18 08:33S 26°40' E 153°17'  

Dump ship's entire track history